Time;durP1;ratioP1;P1;durP2;ratioP2;P2;SDS_P1;SDS_P2;PMS_P1;PMS_P2;Temp;Humidity;BMP_temperature;BMP_pressure;BME280_temperature;BME280_humidity;BME280_pressure;Samples;Min_cycle;Max_cycle;Signal;HPM_P1;HPM_P2
2021/12/14 00:01:47;;;;;;;31.25;21.25;;;2.90;99.90;;;;;;5057030;28;20043;-65
2021/12/14 00:04:28;;;;;;;32.95;24.08;;;2.90;99.90;;;;;;5057063;28;20056;-71
2021/12/14 00:06:55;;;;;;;28.90;21.20;;;2.90;99.90;;;;;;5057531;28;20033;-67
2021/12/14 00:09:28;;;;;;;27.63;20.63;;;2.90;99.90;;;;;;5057045;28;20036;-67
2021/12/14 00:12:23;;;;;;;26.42;19.80;;;2.90;99.90;;;;;;5056797;28;20438;-68
2021/12/14 00:17:29;;;;;;;30.05;20.90;;;2.80;99.90;;;;;;5057048;28;20040;-72
2021/12/14 00:19:58;;;;;;;31.20;21.52;;;2.80;99.90;;;;;;5057045;28;20082;-67
2021/12/14 00:24:58;;;;;;;32.45;23.30;;;2.80;99.90;;;;;;5056908;28;20375;-66
2021/12/14 00:27:24;;;;;;;31.98;22.75;;;2.80;99.90;;;;;;5056600;28;20032;-67
2021/12/14 00:29:54;;;;;;;34.10;23.02;;;2.80;99.90;;;;;;5056606;28;20021;-65
2021/12/14 00:32:24;;;;;;;33.13;23.02;;;2.80;99.90;;;;;;5056736;28;20041;-66
2021/12/14 00:34:55;;;;;;;31.85;21.95;;;2.80;99.90;;;;;;5055561;28;20035;-66
2021/12/14 00:37:30;;;;;;;30.67;22.30;;;2.70;99.90;;;;;;5056545;28;20394;-66
2021/12/14 00:39:59;;;;;;;29.90;22.00;;;2.80;99.90;;;;;;5056075;28;20028;-66
2021/12/14 00:42:25;;;;;;;29.52;20.58;;;2.80;99.90;;;;;;5056053;28;20037;-67
2021/12/14 00:44:51;;;;;;;30.88;21.60;;;2.70;99.90;;;;;;5056243;28;20029;-67
2021/12/14 00:47:17;;;;;;;35.08;23.65;;;2.70;99.90;;;;;;5055287;28;20524;-67
2021/12/14 00:49:43;;;;;;;31.98;23.25;;;2.70;99.90;;;;;;5056210;28;20028;-70
2021/12/14 00:52:09;;;;;;;33.38;23.20;;;2.70;99.90;;;;;;5055996;28;20090;-69
2021/12/14 00:54:37;;;;;;;33.40;23.00;;;2.70;99.90;;;;;;5055912;28;20112;-68
2021/12/14 00:57:05;;;;;;;32.50;24.05;;;2.70;99.90;;;;;;5056148;28;20108;-67
2021/12/14 00:59:31;;;;;;;33.50;23.02;;;2.70;99.90;;;;;;5056118;28;20059;-65
2021/12/14 01:02:10;;;;;;;27.48;20.33;;;2.70;99.90;;;;;;5055866;28;20040;-66
2021/12/14 01:04:57;;;;;;;29.92;21.65;;;2.70;99.90;;;;;;5055887;28;20490;-66
2021/12/14 01:07:26;;;;;;;28.05;20.30;;;2.70;99.90;;;;;;5054366;28;20032;-65
2021/12/14 01:09:59;;;;;;;33.08;23.08;;;2.70;99.90;;;;;;5055804;28;20025;-71
2021/12/14 01:12:37;;;;;;;29.38;21.08;;;2.70;99.90;;;;;;5055488;28;20088;-66
2021/12/14 01:15:32;;;;;;;28.40;20.30;;;2.70;99.90;;;;;;5054412;28;20025;-67
2021/12/14 01:18:16;;;;;;;33.25;21.90;;;2.70;99.90;;;;;;5054239;28;20057;-65
2021/12/14 01:20:47;;;;;;;35.70;22.25;;;2.70;99.90;;;;;;5055784;28;20391;-67
2021/12/14 01:23:28;;;;;;;31.08;21.83;;;2.70;99.90;;;;;;5054465;28;20128;-66
2021/12/14 01:25:57;;;;;;;28.52;19.80;;;2.70;99.90;;;;;;5055463;28;20471;-65
2021/12/14 01:28:27;;;;;;;31.05;21.30;;;2.70;99.90;;;;;;5056344;28;20052;-66
2021/12/14 01:31:18;;;;;;;29.70;21.25;;;2.70;99.90;;;;;;5055416;28;20541;-65
2021/12/14 01:33:49;;;;;;;31.95;21.50;;;2.70;99.90;;;;;;5055278;28;20124;-66
2021/12/14 01:36:37;;;;;;;31.70;21.80;;;2.70;99.90;;;;;;5056044;28;20025;-65
2021/12/14 01:39:48;;;;;;;32.97;22.38;;;2.70;99.90;;;;;;5055534;28;20056;-66
2021/12/14 01:42:20;;;;;;;30.02;21.98;;;2.60;99.90;;;;;;5055052;28;20083;-66
2021/12/14 01:44:54;;;;;;;30.38;21.85;;;2.60;99.90;;;;;;5055077;28;20116;-67
2021/12/14 01:47:31;;;;;;;31.40;22.33;;;2.60;99.90;;;;;;5055166;28;20027;-67
2021/12/14 01:49:57;;;;;;;32.78;22.33;;;2.60;99.90;;;;;;5055492;28;20048;-64
2021/12/14 01:52:31;;;;;;;30.60;21.52;;;2.60;99.90;;;;;;5055019;28;20032;-66
2021/12/14 01:55:18;;;;;;;29.90;21.63;;;2.60;99.90;;;;;;5053729;28;20095;-67
2021/12/14 01:57:44;;;;;;;30.25;21.17;;;2.60;99.90;;;;;;5055055;28;20021;-67
2021/12/14 02:00:16;;;;;;;33.90;22.58;;;2.60;99.90;;;;;;5055040;28;20029;-65
2021/12/14 02:02:45;;;;;;;30.55;21.67;;;2.60;99.90;;;;;;5054974;28;20115;-67
2021/12/14 02:05:26;;;;;;;38.70;23.73;;;2.60;99.90;;;;;;5054663;28;20075;-67
2021/12/14 02:07:53;;;;;;;40.13;24.92;;;2.60;99.90;;;;;;5054790;28;20021;-67
2021/12/14 02:10:27;;;;;;;39.10;25.25;;;2.60;99.90;;;;;;5054523;28;20052;-65
2021/12/14 02:12:54;;;;;;;41.28;24.77;;;2.60;99.90;;;;;;5054117;28;20057;-67
2021/12/14 02:15:25;;;;;;;41.05;26.05;;;2.60;99.90;;;;;;5054494;28;20035;-66
2021/12/14 02:17:53;;;;;;;46.50;25.85;;;2.60;99.90;;;;;;5054965;28;20454;-65
2021/12/14 02:20:24;;;;;;;45.75;26.35;;;2.60;99.90;;;;;;5053004;28;20083;-67
2021/12/14 02:22:50;;;;;;;50.92;27.67;;;2.70;99.90;;;;;;5054253;28;20028;-66
2021/12/14 02:25:17;;;;;;;54.00;29.45;;;2.60;99.90;;;;;;5054637;28;20047;-66
2021/12/14 02:27:46;;;;;;;58.45;30.00;;;2.70;99.90;;;;;;5054188;28;20021;-67
2021/12/14 02:30:19;;;;;;;52.33;29.02;;;2.70;99.90;;;;;;5052971;28;20486;-65
2021/12/14 02:32:45;;;;;;;45.17;26.30;;;2.70;99.90;;;;;;5054344;28;20039;-67
2021/12/14 02:35:14;;;;;;;42.53;25.58;;;2.70;99.90;;;;;;5054340;28;20025;-67
2021/12/14 02:37:48;;;;;;;34.78;22.58;;;2.70;99.90;;;;;;5054066;28;20025;-71
2021/12/14 02:40:31;;;;;;;34.08;23.33;;;2.70;99.90;;;;;;5054186;28;20108;-67
2021/12/14 02:42:58;;;;;;;32.13;21.75;;;2.70;99.90;;;;;;5054003;28;20063;-65
2021/12/14 02:45:24;;;;;;;37.30;24.25;;;2.70;99.90;;;;;;5054621;28;20120;-64
2021/12/14 02:47:50;;;;;;;34.25;23.20;;;2.70;99.90;;;;;;5054242;28;20024;-65
2021/12/14 02:50:17;;;;;;;34.00;23.70;;;2.60;99.90;;;;;;5053760;28;20486;-65
2021/12/14 02:52:43;;;;;;;38.50;25.67;;;2.70;99.90;;;;;;5053844;28;20138;-66
2021/12/14 02:55:14;;;;;;;37.58;23.90;;;2.70;99.90;;;;;;5053627;28;20470;-65
2021/12/14 02:57:44;;;;;;;37.70;25.20;;;2.70;99.90;;;;;;5054545;28;20108;-66
2021/12/14 03:00:18;;;;;;;36.90;25.08;;;2.70;99.90;;;;;;5053817;28;20029;-67
2021/12/14 03:02:45;;;;;;;37.88;25.70;;;2.70;99.90;;;;;;5052473;28;20037;-67
2021/12/14 03:05:19;;;;;;;40.25;25.02;;;2.70;99.90;;;;;;5053521;28;20032;-66
2021/12/14 03:08:19;;;;;;;42.40;25.88;;;2.80;99.90;;;;;;5052429;28;20074;-65
2021/12/14 03:10:55;;;;;;;42.05;26.92;;;2.70;99.90;;;;;;5053218;28;20041;-66
2021/12/14 03:13:24;;;;;;;44.10;26.00;;;2.80;99.90;;;;;;5053626;28;20048;-66
2021/12/14 03:15:54;;;;;;;43.00;26.35;;;2.70;99.90;;;;;;5052322;28;20025;-71
2021/12/14 03:18:29;;;;;;;49.50;28.73;;;2.70;99.90;;;;;;5053628;28;20096;-66
2021/12/14 03:21:09;;;;;;;46.42;28.75;;;2.70;99.90;;;;;;5053638;28;20086;-71
2021/12/14 03:23:40;;;;;;;48.97;29.25;;;2.70;99.90;;;;;;5053699;28;20079;-67
2021/12/14 03:26:09;;;;;;;46.88;26.88;;;2.70;99.90;;;;;;5053935;28;20068;-67
2021/12/14 03:28:38;;;;;;;43.30;26.38;;;2.70;99.90;;;;;;5053484;28;20079;-67
2021/12/14 03:31:33;;;;;;;41.60;27.42;;;2.80;99.90;;;;;;5053447;28;20340;-66
2021/12/14 03:34:00;;;;;;;38.42;24.05;;;2.80;99.90;;;;;;5055716;28;20387;-69
2021/12/14 03:36:32;;;;;;;37.50;24.27;;;2.80;99.90;;;;;;5057524;28;20025;-66
2021/12/14 03:39:03;;;;;;;45.33;29.15;;;2.80;99.90;;;;;;5056282;28;20425;-67
2021/12/14 03:41:39;;;;;;;45.05;29.77;;;2.80;99.90;;;;;;5057432;28;20037;-70
2021/12/14 03:44:15;;;;;;;47.67;30.83;;;2.80;99.90;;;;;;5057560;28;20033;-66
2021/12/14 03:47:12;;;;;;;44.00;27.02;;;2.80;99.90;;;;;;5057398;28;20506;-70
2021/12/14 03:49:39;;;;;;;;;;;2.80;99.90;;;;;;5057655;28;20055;-66
2021/12/14 03:52:11;;;;;;;42.03;28.85;;;2.80;99.90;;;;;;5056221;28;19912;-67
2021/12/14 03:54:37;;;;;;;43.05;28.08;;;2.70;99.90;;;;;;5057069;28;20036;-66
2021/12/14 03:57:04;;;;;;;41.95;28.58;;;2.80;99.90;;;;;;5057127;28;20040;-68
2021/12/14 03:59:31;;;;;;;44.03;29.60;;;2.80;99.90;;;;;;5055950;28;20025;-65
2021/12/14 04:01:59;;;;;;;49.78;33.30;;;2.80;99.90;;;;;;5056948;28;20048;-70
2021/12/14 04:04:33;;;;;;;44.80;29.13;;;2.90;99.90;;;;;;5056923;28;20108;-65
2021/12/14 04:07:01;;;;;;;46.08;28.02;;;2.90;99.90;;;;;;5056992;28;20036;-67
2021/12/14 04:09:31;;;;;;;49.97;32.17;;;2.80;99.90;;;;;;5055718;28;20025;-67
2021/12/14 04:11:57;;;;;;;41.03;27.70;;;2.80;99.90;;;;;;5056866;28;20114;-65
2021/12/14 04:14:28;;;;;;;41.55;27.80;;;2.90;99.90;;;;;;5056769;28;20517;-66
2021/12/14 04:16:55;;;;;;;40.78;26.00;;;2.90;99.90;;;;;;5056813;28;20032;-65
2021/12/14 04:19:24;;;;;;;43.67;29.73;;;2.80;99.90;;;;;;5056711;28;20071;-67
2021/12/14 04:21:51;;;;;;;39.22;25.15;;;2.80;99.90;;;;;;5056582;28;20036;-65
2021/12/14 04:24:26;;;;;;;42.72;27.48;;;2.80;99.90;;;;;;5056434;28;20029;-66
2021/12/14 04:26:54;;;;;;;41.43;27.43;;;2.80;99.90;;;;;;5056581;28;20021;-68
2021/12/14 04:29:20;;;;;;;44.83;27.60;;;2.80;99.90;;;;;;5056224;28;20082;-68
2021/12/14 04:31:50;;;;;;;44.55;27.58;;;2.70;99.90;;;;;;5056082;28;20033;-65
2021/12/14 04:34:17;;;;;;;42.90;27.85;;;2.80;99.90;;;;;;5055303;28;20025;-66
2021/12/14 04:36:50;;;;;;;40.97;26.95;;;2.80;99.90;;;;;;5056144;28;20028;-65
2021/12/14 04:53:38;;;;;;;45.58;32.10;;;2.80;99.90;;;;;;5056223;28;20056;-65
2021/12/14 04:56:06;;;;;;;45.80;30.60;;;2.80;99.90;;;;;;5055595;28;20037;-71
2021/12/14 04:58:36;;;;;;;46.38;30.38;;;2.80;99.90;;;;;;5056017;28;20054;-65
2021/12/14 05:01:05;;;;;;;42.50;28.42;;;2.80;99.90;;;;;;5055832;28;20047;-68
2021/12/14 05:03:37;;;;;;;49.40;30.80;;;2.80;99.90;;;;;;5055838;28;20029;-66
2021/12/14 05:06:19;;;;;;;50.28;30.73;;;2.70;99.90;;;;;;5055748;28;20029;-69
2021/12/14 05:11:20;;;;;;;45.40;27.13;;;2.70;99.90;;;;;;5055418;28;20045;-66
2021/12/14 05:13:49;;;;;;;42.15;28.08;;;2.80;99.90;;;;;;5054321;28;20033;-71
2021/12/14 05:16:19;;;;;;;44.08;29.50;;;2.80;99.90;;;;;;5055510;28;20029;-64
2021/12/14 05:18:47;;;;;;;49.42;32.42;;;2.70;99.90;;;;;;5055485;28;20151;-66
2021/12/14 05:21:13;;;;;;;46.67;30.63;;;2.70;99.90;;;;;;5054008;28;20032;-67
2021/12/14 05:23:38;;;;;;;46.78;31.70;;;2.70;99.90;;;;;;5055587;28;20029;-67
2021/12/14 05:26:06;;;;;;;48.22;29.88;;;2.70;99.90;;;;;;5055429;28;20025;-66
2021/12/14 05:28:33;;;;;;;47.35;30.05;;;2.70;99.90;;;;;;5055340;28;20036;-66
2021/12/14 05:30:59;;;;;;;46.55;30.40;;;2.80;99.90;;;;;;5055266;28;20036;-67
2021/12/14 05:33:31;;;;;;;57.65;31.35;;;2.80;99.90;;;;;;5053774;28;20033;-66
2021/12/14 05:36:01;;;;;;;55.50;32.83;;;2.80;99.90;;;;;;5055137;28;20055;-66
2021/12/14 05:44:20;;;;;;;51.05;32.20;;;2.80;99.90;;;;;;5054886;28;20119;-67
2021/12/14 05:46:50;;;;;;;51.35;31.40;;;2.80;99.90;;;;;;5054737;28;20025;-67
2021/12/14 05:49:21;;;;;;;52.08;32.10;;;2.80;99.90;;;;;;5055144;28;20033;-66
2021/12/14 05:51:48;;;;;;;50.33;31.45;;;2.80;99.90;;;;;;5053743;28;20493;-66
2021/12/14 05:54:23;;;;;;;59.33;33.70;;;2.80;99.90;;;;;;5054749;28;20025;-66
2021/12/14 05:56:51;;;;;;;55.80;34.95;;;2.90;99.90;;;;;;5054033;28;20091;-66
2021/12/14 05:59:22;;;;;;;50.03;29.83;;;2.80;99.90;;;;;;5054600;28;20033;-66
2021/12/14 06:01:50;;;;;;;50.22;31.05;;;2.80;99.90;;;;;;5054815;28;20509;-66
2021/12/14 06:04:16;;;;;;;49.10;30.80;;;2.90;99.90;;;;;;5054517;28;20520;-66
2021/12/14 06:06:55;;;;;;;48.30;29.88;;;2.90;99.90;;;;;;5054557;28;20025;-68
2021/12/14 06:09:24;;;;;;;44.00;29.98;;;2.90;99.90;;;;;;5054559;28;20075;-68
2021/12/14 06:11:55;;;;;;;36.55;24.95;;;2.90;99.90;;;;;;5052669;28;20510;-66
2021/12/14 06:14:23;;;;;;;42.45;27.35;;;2.90;99.90;;;;;;5054322;28;20052;-68
2021/12/14 06:16:53;;;;;;;46.35;28.77;;;2.90;99.90;;;;;;5052863;28;20025;-69
2021/12/14 06:19:33;;;;;;;44.45;28.48;;;2.90;99.90;;;;;;5054290;28;20478;-67
2021/12/14 06:22:12;;;;;;;51.90;32.13;;;2.90;99.90;;;;;;5054501;28;20098;-66
2021/12/14 06:24:43;;;;;;;57.63;33.97;;;2.90;99.90;;;;;;5053075;28;20462;-67
2021/12/14 06:27:12;;;;;;;53.55;31.88;;;2.90;99.90;;;;;;5054200;28;20032;-68
2021/12/14 06:29:43;;;;;;;58.58;34.30;;;2.90;99.90;;;;;;5054312;28;20031;-68
2021/12/14 06:32:11;;;;;;;51.35;32.15;;;2.90;99.90;;;;;;5054039;28;20029;-68
2021/12/14 06:35:00;;;;;;;48.65;31.55;;;2.90;99.90;;;;;;5054289;28;20045;-67
2021/12/14 06:40:09;;;;;;;59.55;36.30;;;2.80;99.90;;;;;;5053985;28;20025;-68
2021/12/14 06:42:40;;;;;;;64.57;38.42;;;2.90;99.90;;;;;;5053708;28;20036;-67
2021/12/14 06:45:16;;;;;;;58.40;35.58;;;2.90;99.90;;;;;;5053908;28;20059;-67
2021/12/14 06:47:43;;;;;;;55.22;35.00;;;2.80;99.90;;;;;;5053923;28;20032;-66
2021/12/14 06:50:13;;;;;;;54.42;33.85;;;2.90;99.90;;;;;;5053822;28;20059;-66
2021/12/14 06:52:39;;;;;;;54.03;35.40;;;2.90;99.90;;;;;;5052590;28;20393;-67
2021/12/14 06:55:07;;;;;;;49.40;31.08;;;2.90;99.90;;;;;;5054087;28;20104;-66
2021/12/14 06:57:33;;;;;;;53.95;35.28;;;2.90;99.90;;;;;;5053768;28;20390;-67
2021/12/14 07:00:00;;;;;;;56.58;37.42;;;2.90;99.90;;;;;;5053758;28;20032;-68
2021/12/14 07:02:26;;;;;;;60.75;37.83;;;2.90;99.90;;;;;;5054013;28;20040;-67
2021/12/14 07:04:52;;;;;;;54.17;32.45;;;3.00;99.90;;;;;;5052418;28;20033;-68
2021/12/14 07:07:26;;;;;;;61.35;36.22;;;3.00;99.90;;;;;;5051956;28;20525;-68
2021/12/14 07:09:55;;;;;;;67.80;40.47;;;3.00;99.90;;;;;;5052731;28;20421;-67
2021/12/14 07:12:30;;;;;;;56.88;34.42;;;3.00;99.90;;;;;;5051870;28;20053;-68
2021/12/14 07:14:58;;;;;;;55.42;34.70;;;3.00;99.90;;;;;;5053666;28;20025;-68
2021/12/14 07:17:40;;;;;;;62.45;38.13;;;3.10;99.90;;;;;;5053545;28;20029;-68
2021/12/14 07:20:18;;;;;;;72.85;44.67;;;3.00;99.90;;;;;;5052286;28;20033;-66
2021/12/14 07:22:47;;;;;;;68.65;42.30;;;3.00;99.90;;;;;;5053539;28;20069;-68
2021/12/14 07:25:27;;;;;;;58.92;35.83;;;3.00;99.90;;;;;;5053529;28;20032;-67
2021/12/14 07:28:14;;;;;;;59.35;34.92;;;3.00;99.90;;;;;;5053472;28;20060;-67
2021/12/14 07:30:41;;;;;;;50.67;31.05;;;3.00;99.90;;;;;;5053271;28;20029;-65
2021/12/14 07:33:18;;;;;;;48.60;31.25;;;3.00;99.90;;;;;;5053460;28;20037;-68
2021/12/14 07:35:49;;;;;;;53.65;33.08;;;3.00;99.90;;;;;;5053407;28;20040;-67
2021/12/14 07:38:34;;;;;;;73.22;41.38;;;3.00;99.90;;;;;;5053145;28;20355;-68
2021/12/14 07:41:38;;;;;;;60.17;37.80;;;3.00;99.90;;;;;;5053368;28;20074;-65
2021/12/14 07:44:14;;;;;;;49.03;30.35;;;3.10;99.90;;;;;;5052422;28;20044;-67
2021/12/14 07:46:39;;;;;;;;;;;3.10;99.90;;;;;;5053703;28;20029;-67
2021/12/14 07:49:07;;;;;;;46.60;26.90;;;3.10;99.90;;;;;;5053603;28;19912;-67
2021/12/14 07:51:36;;;;;;;56.20;32.45;;;3.10;99.90;;;;;;5052933;28;20037;-67
2021/12/14 07:54:09;;;;;;;59.88;38.03;;;3.00;99.90;;;;;;5052126;28;20032;-69
2021/12/14 07:56:42;;;;;;;62.88;39.35;;;3.00;99.90;;;;;;5053390;28;20036;-66
2021/12/14 07:59:30;;;;;;;65.78;38.45;;;3.00;99.90;;;;;;5053354;28;20096;-68
2021/12/14 08:02:31;;;;;;;65.78;40.42;;;3.00;99.90;;;;;;5053846;28;20041;-69
2021/12/14 08:05:01;;;;;;;76.18;44.80;;;3.00;99.90;;;;;;5052511;28;20079;-68
2021/12/14 08:07:35;;;;;;;59.58;38.55;;;3.00;99.90;;;;;;5053173;28;20025;-69
2021/12/14 08:10:07;;;;;;;59.75;37.00;;;3.00;99.90;;;;;;5053061;28;20029;-66
2021/12/14 08:12:52;;;;;;;60.97;37.50;;;3.00;99.90;;;;;;5052824;28;20091;-68
2021/12/14 08:15:26;;;;;;;75.15;44.25;;;3.00;99.90;;;;;;5053066;28;20079;-66
2021/12/14 08:18:08;;;;;;;76.60;44.10;;;3.10;99.90;;;;;;5053076;28;20025;-68
2021/12/14 08:20:39;;;;;;;80.53;47.67;;;3.10;99.90;;;;;;5056110;28;20421;-67
2021/12/14 08:23:16;;;;;;;68.40;41.33;;;3.10;99.90;;;;;;5056714;28;20079;-68
2021/12/14 08:25:42;;;;;;;82.10;49.00;;;3.10;99.90;;;;;;5056779;28;20028;-68
2021/12/14 08:28:09;;;;;;;86.93;52.03;;;3.20;99.90;;;;;;5056602;28;20025;-69
2021/12/14 08:30:37;;;;;;;73.82;43.72;;;3.20;99.90;;;;;;5056322;28;20486;-68
2021/12/14 08:33:04;;;;;;;75.93;46.17;;;3.20;99.90;;;;;;5056168;28;20078;-68
2021/12/14 08:35:31;;;;;;;80.00;49.65;;;3.30;99.90;;;;;;5056213;28;20405;-68
2021/12/14 08:38:01;;;;;;;66.10;41.30;;;3.30;99.90;;;;;;5056137;28;20517;-68
2021/12/14 08:40:42;;;;;;;54.63;34.50;;;3.30;99.90;;;;;;5056103;28;20032;-66
2021/12/14 08:43:21;;;;;;;42.20;27.30;;;3.20;99.90;;;;;;5054847;28;20025;-69
2021/12/14 08:45:53;;;;;;;40.28;26.02;;;3.20;99.90;;;;;;5056283;28;20028;-69
2021/12/14 08:48:30;;;;;;;36.60;24.10;;;3.20;99.90;;;;;;5055304;28;20027;-68
2021/12/14 08:51:13;;;;;;;44.65;27.13;;;3.20;99.90;;;;;;5056257;28;20021;-69
2021/12/14 08:53:44;;;;;;;47.85;30.58;;;3.20;99.90;;;;;;5055944;28;20029;-73
2021/12/14 08:56:12;;;;;;;45.42;30.60;;;3.20;99.90;;;;;;5056495;28;20469;-69
2021/12/14 08:58:40;;;;;;;39.08;26.05;;;3.20;99.90;;;;;;5055817;28;20029;-69
2021/12/14 09:01:14;;;;;;;35.13;23.70;;;3.20;99.90;;;;;;5056009;28;20025;-69
2021/12/14 09:03:45;;;;;;;38.10;25.42;;;3.20;99.90;;;;;;5055929;28;20110;-67
2021/12/14 09:06:16;;;;;;;39.00;24.65;;;3.20;99.90;;;;;;5055867;28;20100;-73
2021/12/14 09:08:43;;;;;;;37.80;24.90;;;3.20;99.90;;;;;;5054942;28;20068;-64
2021/12/14 09:11:11;;;;;;;38.50;25.20;;;3.20;99.90;;;;;;5054520;28;20056;-69
2021/12/14 09:13:38;;;;;;;38.78;25.35;;;3.20;99.90;;;;;;5055836;28;20135;-69
2021/12/14 09:16:09;;;;;;;39.17;25.60;;;3.20;99.90;;;;;;5054258;28;20087;-69
2021/12/14 09:18:42;;;;;;;35.20;23.95;;;3.20;99.90;;;;;;5055908;28;20027;-69
2021/12/14 09:21:13;;;;;;;35.22;23.30;;;3.20;99.90;;;;;;5055654;28;20025;-69
2021/12/14 09:23:43;;;;;;;36.75;23.75;;;3.20;99.90;;;;;;5054741;28;20395;-69
2021/12/14 09:26:13;;;;;;;41.25;24.30;;;3.20;99.90;;;;;;5054105;28;20021;-68
2021/12/14 09:28:39;;;;;;;43.03;27.55;;;3.20;99.90;;;;;;5055465;28;20029;-68
2021/12/14 09:31:11;;;;;;;46.55;28.85;;;3.20;99.90;;;;;;5055167;28;20025;-68
2021/12/14 09:33:40;;;;;;;41.22;27.52;;;3.20;99.90;;;;;;5055579;28;20029;-68
2021/12/14 09:36:12;;;;;;;46.40;30.13;;;3.20;99.90;;;;;;5055745;28;20049;-65
2021/12/14 09:38:42;;;;;;;47.92;30.52;;;3.20;99.90;;;;;;5055188;28;20112;-68
2021/12/14 09:41:11;;;;;;;44.05;28.52;;;3.20;99.90;;;;;;5055129;28;20057;-70
2021/12/14 09:43:38;;;;;;;46.55;28.33;;;3.20;99.90;;;;;;5055085;28;20104;-66
2021/12/14 09:46:06;;;;;;;41.85;27.38;;;3.20;99.90;;;;;;5054945;28;20063;-70
2021/12/14 09:48:37;;;;;;;45.40;28.20;;;3.20;99.90;;;;;;5053825;28;20021;-68
2021/12/14 09:51:07;;;;;;;48.47;30.35;;;3.20;99.90;;;;;;5053904;28;20021;-68
2021/12/14 09:53:37;;;;;;;46.00;31.02;;;3.20;99.90;;;;;;5054571;28;20474;-68
2021/12/14 09:56:03;;;;;;;45.50;31.13;;;3.20;99.90;;;;;;5054804;28;20020;-67
2021/12/14 09:58:36;;;;;;;48.63;31.52;;;3.20;99.90;;;;;;5054589;28;20064;-66
2021/12/14 10:01:08;;;;;;;35.83;25.05;;;3.20;99.90;;;;;;5054692;28;20060;-69
2021/12/14 10:03:35;;;;;;;39.10;25.13;;;3.20;99.90;;;;;;5054826;28;20445;-68
2021/12/14 10:06:06;;;;;;;34.40;22.58;;;3.20;99.90;;;;;;5053467;28;20069;-68
2021/12/14 10:08:43;;;;;;;41.05;26.63;;;3.20;99.90;;;;;;5053498;28;20049;-71
2021/12/14 10:11:24;;;;;;;41.63;26.10;;;3.20;99.90;;;;;;5054313;28;20463;-70
2021/12/14 10:13:52;;;;;;;38.85;24.70;;;3.20;99.90;;;;;;5054538;28;20029;-66
2021/12/14 10:16:18;;;;;;;43.22;27.27;;;3.20;99.90;;;;;;5054299;28;20481;-67
2021/12/14 10:19:13;;;;;;;42.17;26.02;;;3.20;99.90;;;;;;5053227;28;20029;-67
2021/12/14 10:21:46;;;;;;;42.78;28.83;;;3.20;99.90;;;;;;5051964;28;20440;-69
2021/12/14 10:24:13;;;;;;;44.95;26.92;;;3.20;99.90;;;;;;5054399;28;20112;-67
2021/12/14 10:26:46;;;;;;;42.40;28.05;;;3.20;99.90;;;;;;5054291;28;20028;-69
2021/12/14 10:29:13;;;;;;;47.92;30.52;;;3.20;99.90;;;;;;5054454;28;20032;-65
2021/12/14 10:31:42;;;;;;;47.13;30.48;;;3.20;99.90;;;;;;5054155;28;20374;-68
2021/12/14 10:34:16;;;;;;;56.00;34.92;;;3.20;99.90;;;;;;5054658;28;20021;-69
2021/12/14 10:36:46;;;;;;;45.40;29.42;;;3.20;99.90;;;;;;5054174;28;20035;-67
2021/12/14 10:44:47;;;;;;;;;;;3.20;99.90;;;;;;5054536;28;20032;-68
2021/12/14 10:47:16;;;;;;;27.05;19.73;;;3.10;99.90;;;;;;5053946;28;19987;-66
2021/12/14 10:49:42;;;;;;;28.55;19.67;;;3.00;99.90;;;;;;5053865;28;20032;-67
2021/12/14 10:52:15;;;;;;;30.92;21.73;;;3.00;99.90;;;;;;5053798;28;20033;-65
2021/12/14 10:54:47;;;;;;;32.88;21.02;;;3.00;99.90;;;;;;5053888;28;20025;-68
2021/12/14 10:57:18;;;;;;;29.85;19.75;;;3.00;99.90;;;;;;5053919;28;20079;-68
2021/12/14 10:59:47;;;;;;;31.67;21.02;;;3.00;99.90;;;;;;5054091;28;20458;-68
2021/12/14 11:02:13;;;;;;;31.45;21.15;;;3.00;99.90;;;;;;5053743;28;20064;-67
2021/12/14 11:04:55;;;;;;;28.02;18.23;;;3.10;99.90;;;;;;5054057;28;20108;-67
2021/12/14 11:07:38;;;;;;;27.83;19.30;;;3.10;99.90;;;;;;5053797;28;20068;-68
2021/12/14 11:10:26;;;;;;;29.15;20.58;;;3.20;99.90;;;;;;5053775;28;20425;-69
2021/12/14 11:13:12;;;;;;;32.30;22.55;;;3.20;99.90;;;;;;5053138;28;20052;-66
2021/12/14 11:15:47;;;;;;;30.30;21.27;;;3.30;99.90;;;;;;5052411;28;20035;-67
2021/12/14 11:18:17;;;;;;;25.67;19.20;;;3.30;99.90;;;;;;5053828;28;20404;-67
2021/12/14 11:20:50;;;;;;;25.10;17.98;;;3.30;99.90;;;;;;5052341;28;20044;-66
2021/12/14 11:23:18;;;;;;;27.80;19.65;;;3.30;99.90;;;;;;5053827;28;20087;-67
2021/12/14 11:25:46;;;;;;;27.35;19.55;;;3.30;99.90;;;;;;5053382;28;20371;-67
2021/12/14 11:28:21;;;;;;;23.98;17.00;;;3.30;99.90;;;;;;5053549;28;20033;-68
2021/12/14 11:30:54;;;;;;;23.67;17.58;;;3.30;99.90;;;;;;5053750;28;20352;-67
2021/12/14 11:33:26;;;;;;;29.63;18.77;;;3.30;99.90;;;;;;5053684;28;20033;-68
2021/12/14 11:35:55;;;;;;;25.55;18.55;;;3.30;99.90;;;;;;5053501;28;20048;-68
2021/12/14 11:38:49;;;;;;;29.20;19.83;;;3.30;99.90;;;;;;5053046;28;20021;-68
2021/12/14 11:41:26;;;;;;;30.58;21.63;;;3.30;99.90;;;;;;5051769;28;20474;-68
2021/12/14 11:44:15;;;;;;;30.95;22.38;;;3.20;99.90;;;;;;5053822;28;20025;-68
2021/12/14 11:46:59;;;;;;;29.60;21.65;;;3.20;99.90;;;;;;5053607;28;20160;-67
2021/12/14 11:49:40;;;;;;;32.72;22.45;;;3.20;99.90;;;;;;5053373;28;20170;-68
2021/12/14 11:52:06;;;;;;;33.05;23.67;;;3.20;99.90;;;;;;5053060;28;20479;-68
2021/12/14 11:54:46;;;;;;;32.22;22.77;;;3.10;99.90;;;;;;5054638;28;20029;-67
2021/12/14 11:57:14;;;;;;;34.15;24.13;;;3.20;99.90;;;;;;5057052;28;20029;-68
2021/12/14 11:59:40;;;;;;;32.95;23.23;;;3.20;99.90;;;;;;5057081;28;20025;-67
2021/12/14 12:02:07;;;;;;;32.80;23.85;;;3.10;99.90;;;;;;5057435;28;20374;-69
2021/12/14 12:04:36;;;;;;;32.10;23.33;;;3.20;99.90;;;;;;5056940;28;20112;-68
2021/12/14 12:09:44;;;;;;;33.25;23.88;;;3.20;99.90;;;;;;5057152;28;20029;-68
2021/12/14 12:12:21;;;;;;;35.35;25.67;;;3.20;99.90;;;;;;5056521;28;20136;-66
2021/12/14 12:14:52;;;;;;;36.97;26.30;;;3.20;99.90;;;;;;5056696;28;20471;-70
2021/12/14 12:17:26;;;;;;;39.72;26.33;;;3.20;99.90;;;;;;5056932;28;20025;-66
2021/12/14 12:20:22;;;;;;;38.33;26.40;;;3.20;99.90;;;;;;5056705;28;20057;-65
2021/12/14 12:23:02;;;;;;;38.92;27.08;;;3.20;99.90;;;;;;5056420;28;20048;-68
2021/12/14 12:25:35;;;;;;;39.28;27.77;;;3.20;99.90;;;;;;5056617;28;20463;-67
2021/12/14 12:28:12;;;;;;;41.83;30.08;;;3.10;99.90;;;;;;5055322;28;20046;-67
2021/12/14 12:31:04;;;;;;;40.35;28.65;;;3.10;99.90;;;;;;5055210;28;20493;-67
2021/12/14 12:33:34;;;;;;;45.38;30.92;;;3.10;99.90;;;;;;5056323;28;20119;-68
2021/12/14 12:36:39;;;;;;;42.78;27.58;;;3.10;99.90;;;;;;5056413;28;20492;-68
2021/12/14 12:39:12;;;;;;;39.47;26.35;;;3.10;99.90;;;;;;5055625;28;20037;-66
2021/12/14 12:41:44;;;;;;;45.95;28.55;;;3.10;99.90;;;;;;5056303;28;20021;-68
2021/12/14 12:44:24;;;;;;;40.88;27.77;;;3.10;99.90;;;;;;5056221;28;20107;-67
2021/12/14 12:47:19;;;;;;;46.17;30.23;;;3.10;99.90;;;;;;5056214;28;20375;-68
2021/12/14 12:49:51;;;;;;;44.40;31.02;;;3.10;99.90;;;;;;5056759;28;20032;-70
2021/12/14 12:52:22;;;;;;;46.25;30.70;;;3.10;99.90;;;;;;5056036;28;20033;-66
2021/12/14 12:55:11;;;;;;;45.80;31.10;;;3.20;99.90;;;;;;5056077;28;20076;-67
2021/12/14 12:57:38;;;;;;;52.78;31.80;;;3.20;99.90;;;;;;5055962;28;20126;-67
2021/12/14 13:00:23;;;;;;;47.10;31.75;;;3.20;99.90;;;;;;5055943;28;20029;-68
2021/12/14 13:02:57;;;;;;;43.78;29.08;;;3.20;99.90;;;;;;5055931;28;20032;-69
2021/12/14 13:05:50;;;;;;;36.17;23.20;;;3.20;99.90;;;;;;5055598;28;20455;-67
2021/12/14 13:08:31;;;;;;;37.95;25.88;;;3.10;99.90;;;;;;5056048;28;20032;-66
2021/12/14 13:11:10;;;;;;;39.63;26.00;;;3.00;99.90;;;;;;5055455;28;20032;-67
2021/12/14 13:13:40;;;;;;;41.90;27.85;;;3.00;99.90;;;;;;5054541;28;20082;-67
2021/12/14 13:16:21;;;;;;;43.92;28.95;;;3.00;99.90;;;;;;5055580;28;20116;-69
2021/12/14 13:19:03;;;;;;;43.03;30.10;;;3.10;99.90;;;;;;5055657;28;20031;-67
2021/12/14 13:21:39;;;;;;;47.90;32.10;;;3.10;99.90;;;;;;5055790;28;20021;-68
2021/12/14 13:24:09;;;;;;;47.38;29.83;;;3.00;99.90;;;;;;5055380;28;20056;-68
2021/12/14 13:26:43;;;;;;;43.97;28.83;;;3.10;99.90;;;;;;5055148;28;20055;-72
2021/12/14 13:29:20;;;;;;;48.22;30.63;;;3.00;99.90;;;;;;5055547;28;20112;-68
2021/12/14 13:32:07;;;;;;;46.58;30.20;;;3.00;99.90;;;;;;5055608;28;20045;-69
2021/12/14 13:34:41;;;;;;;39.90;26.05;;;3.00;99.90;;;;;;5055218;28;20032;-66
2021/12/14 13:37:08;;;;;;;42.13;26.10;;;3.00;99.90;;;;;;5053964;28;20108;-68
2021/12/14 13:39:36;;;;;;;40.70;28.05;;;3.00;99.90;;;;;;5055215;28;20039;-65
2021/12/14 13:42:07;;;;;;;43.30;25.95;;;3.00;99.90;;;;;;5054203;28;20025;-67
2021/12/14 13:44:48;;;;;;;39.28;26.80;;;3.00;99.90;;;;;;5055009;28;20462;-67
2021/12/14 13:47:14;;;;;;;43.53;27.65;;;3.00;99.90;;;;;;5055035;28;20052;-65